Time;durP1;ratioP1;P1;durP2;ratioP2;P2;SDS_P1;SDS_P2;PMS_P1;PMS_P2;Temp;Humidity;BMP_temperature;BMP_pressure;BME280_temperature;BME280_humidity;BME280_pressure;Samples;Min_cycle;Max_cycle;Signal;HPM_P1;HPM_P2
2021/12/06 00:02:12;;;;;;;8.82;1.63;;;9.50;76.80;;;;;;5014223;28;20072;-88
2021/12/06 00:04:38;;;;;;;1.83;0.90;;;9.50;76.70;;;;;;4993895;28;20061;-93
2021/12/06 00:07:12;;;;;;;3.67;1.35;;;9.50;76.60;;;;;;4976360;28;20044;-93
2021/12/06 00:09:38;;;;;;;4.57;1.38;;;9.50;76.50;;;;;;4985305;28;20129;-91
2021/12/06 00:12:05;;;;;;;3.78;1.33;;;9.70;76.60;;;;;;4983280;28;20105;-93
2021/12/06 00:14:34;;;;;;;5.85;1.35;;;9.50;76.40;;;;;;4960340;28;20066;-93
2021/12/06 00:17:04;;;;;;;4.05;2.10;;;9.80;76.60;;;;;;4966820;28;20096;-92
2021/12/06 00:19:31;;;;;;;8.77;3.40;;;9.50;76.40;;;;;;4960115;28;20123;-94
2021/12/06 00:21:58;;;;;;;6.93;2.03;;;9.70;76.50;;;;;;4978237;28;20044;-91
2021/12/06 00:24:24;;;;;;;5.10;1.80;;;9.40;76.30;;;;;;4969127;28;20041;-88
2021/12/06 00:26:50;;;;;;;4.75;1.98;;;9.50;76.30;;;;;;4977825;28;20037;-89
2021/12/06 00:29:18;;;;;;;3.60;1.00;;;9.50;76.30;;;;;;4962666;28;20541;-93
2021/12/06 00:31:44;;;;;;;5.05;2.05;;;9.80;76.40;;;;;;4963322;28;20045;-93
2021/12/06 00:34:16;;;;;;;4.03;1.58;;;9.50;76.30;;;;;;4960360;28;20038;-92
2021/12/06 00:36:52;;;;;;;4.20;2.10;;;9.80;76.30;;;;;;4991526;28;20057;-92
2021/12/06 00:39:20;;;;;;;5.47;2.20;;;9.60;76.80;;;;;;4980218;28;20076;-92
2021/12/06 00:41:46;;;;;;;5.38;2.83;;;9.50;76.10;;;;;;4983882;28;20030;-93
2021/12/06 00:44:12;;;;;;;5.63;1.85;;;9.50;76.10;;;;;;4973215;28;20043;-93
2021/12/06 00:46:39;;;;;;;5.47;2.00;;;9.50;76.00;;;;;;4973840;28;20132;-92
2021/12/06 00:49:09;;;;;;;5.03;1.92;;;9.40;75.90;;;;;;4970118;28;20083;-93
2021/12/06 00:51:36;;;;;;;6.07;1.98;;;9.40;75.90;;;;;;4965725;28;20036;-93
2021/12/06 00:54:03;;;;;;;4.75;1.50;;;9.50;76.00;;;;;;4980855;28;20117;-93
2021/12/06 00:56:29;;;;;;;6.28;1.65;;;9.40;75.90;;;;;;4985842;28;20040;-91
2021/12/06 00:58:54;;;;;;;4.18;1.35;;;9.40;76.00;;;;;;4990506;28;20061;-94
2021/12/06 01:01:20;;;;;;;4.28;1.55;;;9.50;76.00;;;;;;4969429;28;20033;-93
2021/12/06 01:03:46;;;;;;;6.32;1.55;;;9.40;75.90;;;;;;4972527;28;20558;-93
2021/12/06 01:06:12;;;;;;;6.93;1.42;;;9.40;76.00;;;;;;4975092;28;20036;-94
2021/12/06 01:08:39;;;;;;;6.15;1.85;;;9.30;76.00;;;;;;4961461;28;20046;-90
2021/12/06 01:11:08;;;;;;;9.10;4.40;;;9.60;76.20;;;;;;4969533;28;20053;-93
2021/12/06 01:13:35;;;;;;;9.95;5.18;;;9.30;76.00;;;;;;4975569;28;20465;-93
2021/12/06 01:16:01;;;;;;;5.28;2.55;;;9.60;76.30;;;;;;4965679;28;20038;-94
2021/12/06 01:18:27;;;;;;;3.10;1.65;;;9.30;76.10;;;;;;4979820;28;20042;-93
2021/12/06 01:21:11;;;;;;;5.78;1.55;;;9.30;76.20;;;;;;4968465;28;20392;-89
2021/12/06 01:23:59;;;;;;;6.07;1.83;;;9.30;76.20;;;;;;4992196;28;20042;-89
2021/12/06 01:32:02;;;;;;;;;;;9.30;76.10;;;;;;4947473;28;20134;-92
2021/12/06 01:39:56;;;;;;;7.97;3.67;;;9.40;76.10;;;;;;4988629;28;20041;-92
2021/12/06 01:42:22;;;;;;;7.38;2.50;;;9.70;76.30;;;;;;4969656;28;20025;-88
2021/12/06 01:44:53;;;;;;;5.43;1.75;;;9.60;76.30;;;;;;4973894;28;20092;-94
2021/12/06 01:47:23;;;;;;;5.40;2.03;;;9.30;76.10;;;;;;4984833;28;20030;-92
2021/12/06 01:49:53;;;;;;;3.38;1.25;;;9.30;76.10;;;;;;4959269;28;20038;-93
2021/12/06 01:52:27;;;;;;;5.47;1.58;;;9.40;76.10;;;;;;4973508;28;20030;-93
2021/12/06 01:54:54;;;;;;;3.85;1.10;;;9.30;76.10;;;;;;4969757;28;20049;-93
2021/12/06 01:57:25;;;;;;;4.03;1.25;;;9.30;76.70;;;;;;4980072;28;20033;-95
2021/12/06 01:59:53;;;;;;;5.03;1.25;;;9.30;76.10;;;;;;4997924;28;20239;-89
2021/12/06 02:02:21;;;;;;;8.85;1.65;;;9.30;76.10;;;;;;5014072;28;20085;-89
2021/12/06 02:04:46;;;;;;;3.53;1.30;;;9.30;76.00;;;;;;5024098;28;20026;-88
2021/12/06 02:07:16;;;;;;;2.17;0.98;;;9.30;76.00;;;;;;4983653;28;20080;-94
2021/12/06 02:09:44;;;;;;;4.18;1.08;;;9.30;76.00;;;;;;4965318;28;20671;-93
2021/12/06 02:12:12;;;;;;;2.00;1.27;;;9.30;76.10;;;;;;4979043;28;20470;-93
2021/12/06 02:15:05;;;;;;;4.18;1.20;;;9.30;76.00;;;;;;4974455;28;20553;-94
2021/12/06 02:17:29;;;;;;;5.15;1.10;;;9.30;76.10;;;;;;4985812;28;20042;-89
2021/12/06 02:20:04;;;;;;;4.10;1.30;;;9.30;76.10;;;;;;4973870;28;20050;-90
2021/12/06 02:22:33;;;;;;;2.78;1.50;;;9.30;76.00;;;;;;4981613;28;20901;-91
2021/12/06 02:25:00;;;;;;;2.25;0.90;;;9.30;76.00;;;;;;4964167;28;20052;-90
2021/12/06 02:27:28;;;;;;;3.55;1.60;;;9.30;76.00;;;;;;4977430;28;20028;-93
2021/12/06 02:29:59;;;;;;;4.97;2.30;;;9.30;76.00;;;;;;4981586;28;20121;-89
2021/12/06 02:32:26;;;;;;;6.30;2.10;;;9.30;75.90;;;;;;4981046;28;20114;-92
2021/12/06 02:34:56;;;;;;;3.97;1.63;;;9.50;76.10;;;;;;4990760;28;20453;-92
2021/12/06 02:37:29;;;;;;;7.97;2.80;;;9.30;76.00;;;;;;4991827;28;20047;-93
2021/12/06 02:39:56;;;;;;;6.63;1.85;;;9.30;76.00;;;;;;4977809;28;20057;-94
2021/12/06 02:42:23;;;;;;;4.78;2.17;;;9.60;76.20;;;;;;4993279;28;20097;-93
2021/12/06 02:44:49;;;;;;;5.55;2.00;;;9.30;76.00;;;;;;4982100;28;20150;-94
2021/12/06 02:47:16;;;;;;;6.10;2.22;;;9.40;76.10;;;;;;4969869;28;20030;-92
2021/12/06 02:49:43;;;;;;;4.65;2.50;;;9.60;76.10;;;;;;4961932;28;20041;-94
2021/12/06 02:52:11;;;;;;;6.95;2.15;;;9.70;76.30;;;;;;4978912;28;20030;-89
2021/12/06 02:54:37;;;;;;;4.82;1.85;;;9.60;76.20;;;;;;4966634;28;20107;-93
2021/12/06 02:59:35;;;;;;;2.85;1.40;;;9.40;76.10;;;;;;4992537;28;20038;-94
2021/12/06 03:02:10;;;;;;;4.00;1.40;;;9.60;76.20;;;;;;4962906;28;20296;-93
2021/12/06 03:04:37;;;;;;;4.57;1.52;;;9.40;76.00;;;;;;4993628;28;20172;-93
2021/12/06 03:07:04;;;;;;;3.25;1.30;;;9.40;76.00;;;;;;4984344;28;20034;-94
2021/12/06 03:09:37;;;;;;;4.80;1.55;;;9.40;76.00;;;;;;4977338;28;20519;-93
2021/12/06 03:12:11;;;;;;;5.18;2.05;;;9.40;76.00;;;;;;4981981;28;20092;-93
2021/12/06 03:14:43;;;;;;;1.52;0.93;;;9.40;76.00;;;;;;4977484;28;20119;-92
2021/12/06 03:17:14;;;;;;;7.82;1.10;;;9.40;76.00;;;;;;4988066;28;20029;-90
2021/12/06 03:19:40;;;;;;;3.65;1.20;;;9.40;76.00;;;;;;4980395;28;20061;-92
2021/12/06 03:22:09;;;;;;;9.00;1.13;;;9.40;76.00;;;;;;4981727;28;20034;-93
2021/12/06 03:24:35;;;;;;;8.07;1.50;;;9.40;76.00;;;;;;4965214;28;20957;-94
2021/12/06 03:27:02;;;;;;;4.15;1.15;;;9.40;76.00;;;;;;4974440;28;20026;-91
2021/12/06 03:29:28;;;;;;;5.25;1.83;;;9.40;75.90;;;;;;4983765;28;20044;-92
2021/12/06 03:31:55;;;;;;;9.40;2.53;;;9.40;76.00;;;;;;4970228;28;20112;-93
2021/12/06 03:34:26;;;;;;;7.88;2.38;;;9.50;76.00;;;;;;4961775;28;20124;-93
2021/12/06 03:36:55;;;;;;;4.78;1.88;;;9.40;76.00;;;;;;4965214;28;20044;-94
2021/12/06 03:39:32;;;;;;;6.97;2.75;;;9.40;75.90;;;;;;5001114;28;20051;-93
2021/12/06 03:42:03;;;;;;;5.25;1.58;;;9.60;76.00;;;;;;4982124;28;20046;-94
2021/12/06 03:44:29;;;;;;;6.03;2.13;;;9.40;75.90;;;;;;4990419;28;20045;-93
2021/12/06 03:47:04;;;;;;;4.10;2.00;;;9.40;76.50;;;;;;4962550;28;20031;-92
2021/12/06 03:49:30;;;;;;;9.45;2.92;;;9.40;75.90;;;;;;4967138;28;20124;-93
2021/12/06 03:51:56;;;;;;;9.88;3.08;;;9.60;76.10;;;;;;4979047;28;20565;-94
2021/12/06 03:54:26;;;;;;;8.20;2.72;;;9.40;76.00;;;;;;4993123;28;20037;-93
2021/12/06 03:56:52;;;;;;;8.05;2.35;;;9.50;76.00;;;;;;4980409;28;20128;-92
2021/12/06 03:59:18;;;;;;;4.85;1.60;;;9.90;76.30;;;;;;4967078;28;20093;-89
2021/12/06 04:01:46;;;;;;;4.85;2.20;;;9.40;76.00;;;;;;4970025;28;20372;-93
2021/12/06 04:04:12;;;;;;;3.88;1.55;;;9.40;76.00;;;;;;5015992;28;20057;-93
2021/12/06 04:06:40;;;;;;;7.28;2.03;;;9.40;76.00;;;;;;5000688;28;20030;-88
2021/12/06 04:09:07;;;;;;;8.48;2.30;;;9.40;76.10;;;;;;4978095;28;20125;-93
2021/12/06 04:11:34;;;;;;;7.75;2.03;;;9.40;76.10;;;;;;4973294;28;20070;-93
2021/12/06 04:14:00;;;;;;;5.85;1.75;;;9.40;76.10;;;;;;4982136;28;20088;-88
2021/12/06 04:16:26;;;;;;;6.93;2.28;;;9.40;76.10;;;;;;4964403;28;20037;-93
2021/12/06 04:18:52;;;;;;;6.03;2.42;;;9.40;76.10;;;;;;4972853;28;20080;-93
2021/12/06 04:21:19;;;;;;;9.75;3.42;;;9.60;76.20;;;;;;5005295;28;20514;-91
2021/12/06 04:23:45;;;;;;;6.60;2.08;;;9.40;76.00;;;;;;4978024;28;20050;-93
2021/12/06 04:26:11;;;;;;;5.45;1.58;;;9.40;76.00;;;;;;4991228;28;20075;-93
2021/12/06 04:28:43;;;;;;;4.68;1.15;;;9.40;76.00;;;;;;4972302;28;20042;-94
2021/12/06 04:31:09;;;;;;;6.32;3.10;;;9.40;76.00;;;;;;4983250;28;20032;-92
2021/12/06 04:33:34;;;;;;;3.33;1.73;;;9.40;76.00;;;;;;4970552;28;20042;-93
2021/12/06 04:36:01;;;;;;;4.80;2.03;;;9.40;76.10;;;;;;4979941;28;20445;-92
2021/12/06 04:38:27;;;;;;;5.45;1.67;;;9.40;76.00;;;;;;4967037;28;20030;-93
2021/12/06 04:40:53;;;;;;;4.40;1.70;;;9.60;76.20;;;;;;4981735;28;20034;-92
2021/12/06 04:43:19;;;;;;;5.78;2.05;;;9.40;76.00;;;;;;4988978;28;20054;-93
2021/12/06 04:45:45;;;;;;;3.95;1.38;;;9.40;76.00;;;;;;5000162;28;20037;-91
2021/12/06 04:48:10;;;;;;;6.50;1.65;;;9.80;76.30;;;;;;4983654;28;20041;-93
2021/12/06 04:50:39;;;;;;;5.95;2.05;;;9.40;76.00;;;;;;4966290;28;20035;-94
2021/12/06 04:53:18;;;;;;;9.27;4.88;;;9.40;76.00;;;;;;4968213;28;20083;-93
2021/12/06 04:55:43;;;;;;;7.95;4.63;;;9.40;76.00;;;;;;4967235;28;20042;-93
2021/12/06 04:58:18;;;;;;;10.23;5.00;;;9.40;76.00;;;;;;4993996;28;20116;-90
2021/12/06 05:00:51;;;;;;;9.20;4.07;;;9.40;76.00;;;;;;4976301;28;20065;-93
2021/12/06 05:03:17;;;;;;;8.23;4.00;;;9.60;76.10;;;;;;4967294;28;20029;-92
2021/12/06 05:05:53;;;;;;;10.35;5.97;;;9.40;76.00;;;;;;4986428;28;20400;-93
2021/12/06 05:08:28;;;;;;;9.73;4.40;;;9.40;76.00;;;;;;4980167;28;20032;-90
2021/12/06 05:10:56;;;;;;;8.02;3.38;;;9.40;76.00;;;;;;4985087;28;20121;-93
2021/12/06 05:13:23;;;;;;;9.68;3.63;;;9.40;76.00;;;;;;4962960;28;20034;-93
2021/12/06 05:15:49;;;;;;;6.82;2.60;;;9.40;76.00;;;;;;4991835;28;20030;-94
2021/12/06 05:18:15;;;;;;;8.25;2.03;;;9.50;76.10;;;;;;4973704;28;20040;-93
2021/12/06 05:20:40;;;;;;;6.68;3.35;;;9.40;76.10;;;;;;5010008;28;20041;-93
2021/12/06 05:23:12;;;;;;;4.38;2.55;;;9.90;76.40;;;;;;4984791;28;20022;-94
2021/12/06 05:25:38;;;;;;;8.90;2.92;;;9.40;76.10;;;;;;4972483;28;20125;-93
2021/12/06 05:28:05;;;;;;;5.07;2.65;;;9.40;76.10;;;;;;4990579;28;20191;-92
2021/12/06 05:30:33;;;;;;;9.00;2.78;;;9.40;76.10;;;;;;4968435;28;20054;-88
2021/12/06 05:33:00;;;;;;;4.45;1.70;;;9.50;76.20;;;;;;4970761;28;20040;-88
2021/12/06 05:35:27;;;;;;;6.30;2.10;;;9.40;76.20;;;;;;4978629;28;20038;-93
2021/12/06 05:37:56;;;;;;;5.32;1.77;;;9.40;76.20;;;;;;4969877;28;20064;-92
2021/12/06 05:40:30;;;;;;;4.82;2.28;;;9.40;76.10;;;;;;4980947;28;20042;-91
2021/12/06 05:42:57;;;;;;;6.38;1.60;;;9.40;76.10;;;;;;4988649;28;20034;-93
2021/12/06 05:45:25;;;;;;;4.22;1.55;;;9.40;76.20;;;;;;4999609;28;20036;-92
2021/12/06 05:47:52;;;;;;;6.03;1.70;;;9.60;76.20;;;;;;4965519;28;20026;-93
2021/12/06 05:50:18;;;;;;;4.18;1.63;;;9.40;76.20;;;;;;4976568;28;20441;-92
2021/12/06 05:52:45;;;;;;;4.70;2.05;;;9.40;76.20;;;;;;4988879;28;20034;-93
2021/12/06 05:55:11;;;;;;;7.03;2.13;;;9.30;76.20;;;;;;4995988;28;20238;-93
2021/12/06 05:57:39;;;;;;;4.68;2.50;;;9.30;76.20;;;;;;4989747;28;20194;-93
2021/12/06 06:00:09;;;;;;;5.90;1.65;;;9.30;76.20;;;;;;4997986;28;20064;-93
2021/12/06 06:02:35;;;;;;;8.02;2.00;;;9.30;76.20;;;;;;4972982;28;20031;-92
2021/12/06 06:05:00;;;;;;;4.47;1.73;;;9.30;76.30;;;;;;4979893;28;20034;-93
2021/12/06 06:07:26;;;;;;;5.80;2.10;;;9.30;76.30;;;;;;4991721;28;20028;-91
2021/12/06 06:09:52;;;;;;;4.20;1.75;;;9.50;76.40;;;;;;4990687;28;20034;-89
2021/12/06 06:12:18;;;;;;;4.88;1.70;;;9.70;76.60;;;;;;4999753;28;20057;-88
2021/12/06 06:14:43;;;;;;;5.80;2.20;;;9.30;76.40;;;;;;4977160;28;20083;-94
2021/12/06 06:17:13;;;;;;;3.22;1.85;;;9.30;76.40;;;;;;4978416;28;20061;-92
2021/12/06 06:19:52;;;;;;;4.00;1.73;;;9.30;76.40;;;;;;4964991;28;20512;-94
2021/12/06 06:22:19;;;;;;;3.65;1.77;;;9.30;76.40;;;;;;4969332;28;20041;-93
2021/12/06 06:24:45;;;;;;;12.50;3.33;;;9.30;76.40;;;;;;4968806;28;20136;-94
2021/12/06 06:27:11;;;;;;;16.20;5.45;;;9.30;76.50;;;;;;4981565;28;20526;-93
2021/12/06 06:29:37;;;;;;;21.88;6.10;;;9.30;77.10;;;;;;4971497;28;20515;-88
2021/12/06 06:32:04;;;;;;;19.88;8.05;;;9.50;76.70;;;;;;4987637;28;20088;-93
2021/12/06 06:34:30;;;;;;;20.40;8.50;;;9.30;76.60;;;;;;4963425;28;20042;-93
2021/12/06 06:36:57;;;;;;;20.15;5.78;;;9.20;76.60;;;;;;4990220;28;20396;-93
2021/12/06 06:39:22;;;;;;;12.48;5.70;;;9.60;77.40;;;;;;4985752;28;20034;-92
2021/12/06 06:41:53;;;;;;;8.57;4.22;;;9.30;76.70;;;;;;4980025;28;20124;-88
2021/12/06 06:44:20;;;;;;;10.35;4.07;;;9.30;76.60;;;;;;4998539;28;20541;-89
2021/12/06 06:46:47;;;;;;;9.75;3.05;;;9.30;76.70;;;;;;4970560;28;20503;-93
2021/12/06 06:49:14;;;;;;;6.72;2.40;;;9.30;76.80;;;;;;4966454;28;20038;-94
2021/12/06 06:51:40;;;;;;;9.32;2.97;;;9.50;76.90;;;;;;4989957;28;20034;-91
2021/12/06 06:54:07;;;;;;;6.03;2.80;;;9.30;76.80;;;;;;4975279;28;20092;-92
2021/12/06 06:56:33;;;;;;;6.63;2.60;;;9.20;76.70;;;;;;4988904;28;20037;-93
2021/12/06 06:58:59;;;;;;;5.40;2.65;;;9.80;77.10;;;;;;4965651;28;20436;-93
2021/12/06 07:01:25;;;;;;;4.75;2.10;;;9.20;76.80;;;;;;4978553;28;20045;-94
2021/12/06 07:03:53;;;;;;;5.40;2.03;;;9.50;77.10;;;;;;4982537;28;20038;-92
2021/12/06 07:06:25;;;;;;;5.15;2.30;;;9.60;77.10;;;;;;4970863;28;20030;-88
2021/12/06 07:08:54;;;;;;;7.50;2.45;;;9.20;76.90;;;;;;4961320;28;20484;-92
2021/12/06 07:11:21;;;;;;;7.47;2.13;;;9.30;77.00;;;;;;4995210;28;20533;-93
2021/12/06 07:13:47;;;;;;;7.47;2.20;;;9.20;76.90;;;;;;4980114;28;20042;-93
2021/12/06 07:16:15;;;;;;;7.47;1.95;;;9.50;77.10;;;;;;4975869;28;20021;-93
2021/12/06 07:18:42;;;;;;;3.40;1.90;;;9.20;77.00;;;;;;4968409;28;20034;-92
2021/12/06 07:21:08;;;;;;;7.68;2.03;;;9.30;77.10;;;;;;4969635;28;20101;-92
2021/12/06 07:23:38;;;;;;;4.32;2.08;;;9.20;77.10;;;;;;4976282;28;20033;-89
2021/12/06 07:26:07;;;;;;;15.63;5.25;;;9.20;77.00;;;;;;4959405;28;20030;-91
2021/12/06 07:28:34;;;;;;;35.45;14.15;;;9.50;77.20;;;;;;4974558;28;20040;-89
2021/12/06 07:31:01;;;;;;;21.25;8.45;;;9.30;77.70;;;;;;4970817;28;20568;-92
2021/12/06 07:33:27;;;;;;;15.00;5.45;;;9.70;77.40;;;;;;4963799;28;20036;-91
2021/12/06 07:35:53;;;;;;;4.93;3.10;;;9.30;77.20;;;;;;4962576;28;20690;-92
2021/12/06 07:38:19;;;;;;;10.10;3.13;;;9.30;77.20;;;;;;4982808;28;20038;-92
2021/12/06 07:40:49;;;;;;;8.20;4.55;;;9.40;77.30;;;;;;4973523;28;20133;-91
2021/12/06 07:43:15;;;;;;;11.02;4.57;;;9.30;77.20;;;;;;4985117;28;20466;-93
2021/12/06 07:45:41;;;;;;;6.75;2.65;;;9.30;77.20;;;;;;4964245;28;20095;-91
2021/12/06 07:48:07;;;;;;;6.32;2.90;;;9.40;77.30;;;;;;4993064;28;20025;-92
2021/12/06 07:50:35;;;;;;;6.82;2.20;;;9.60;77.40;;;;;;4985802;28;20113;-91
2021/12/06 07:53:01;;;;;;;7.15;2.53;;;9.40;77.30;;;;;;4980945;28;20506;-92
2021/12/06 07:55:31;;;;;;;6.63;2.10;;;9.40;77.30;;;;;;4991714;28;20117;-93
2021/12/06 07:57:58;;;;;;;8.98;4.47;;;9.40;77.30;;;;;;4983322;28;20451;-92
2021/12/06 08:00:26;;;;;;;5.50;2.50;;;9.40;77.30;;;;;;4970377;28;20030;-92
2021/12/06 08:02:52;;;;;;;7.88;4.40;;;9.40;77.30;;;;;;4981353;28;20037;-91
2021/12/06 08:05:31;;;;;;;9.32;5.35;;;9.50;77.40;;;;;;4990812;28;20356;-92
2021/12/06 08:08:11;;;;;;;9.82;5.07;;;9.40;77.40;;;;;;4976552;28;20018;-93
2021/12/06 08:10:44;;;;;;;11.30;3.92;;;9.40;77.50;;;;;;4973901;28;20034;-90
2021/12/06 08:13:16;;;;;;;7.00;3.55;;;9.60;77.60;;;;;;5000395;28;20024;-89
2021/12/06 08:15:43;;;;;;;6.57;2.60;;;9.40;77.60;;;;;;4986663;28;20030;-88
2021/12/06 08:18:09;;;;;;;5.68;2.42;;;9.50;77.70;;;;;;5001095;28;20033;-93
2021/12/06 08:20:36;;;;;;;9.05;2.50;;;9.50;77.70;;;;;;4988252;28;20150;-93
2021/12/06 08:23:04;;;;;;;7.07;2.10;;;9.80;77.90;;;;;;4968769;28;20523;-94
2021/12/06 08:25:29;;;;;;;11.43;2.67;;;9.50;77.70;;;;;;4981340;28;20101;-94
2021/12/06 08:27:55;;;;;;;3.95;2.10;;;9.50;77.80;;;;;;4989834;28;20029;-93
2021/12/06 08:30:23;;;;;;;7.07;2.42;;;9.50;77.80;;;;;;4988265;28;20074;-92
2021/12/06 08:32:55;;;;;;;8.05;1.92;;;9.70;77.90;;;;;;4979512;28;20506;-92
2021/12/06 08:35:21;;;;;;;6.82;2.20;;;9.50;77.80;;;;;;4984388;28;20515;-93
2021/12/06 08:37:48;;;;;;;10.75;3.05;;;9.70;77.90;;;;;;4983347;28;20448;-93
2021/12/06 08:40:16;;;;;;;7.43;2.60;;;9.50;77.70;;;;;;4979609;28;20038;-88
2021/12/06 08:42:42;;;;;;;7.57;2.70;;;9.50;77.70;;;;;;4968641;28;20027;-93
2021/12/06 08:45:10;;;;;;;5.00;2.35;;;9.90;78.00;;;;;;4968654;28;20386;-93
2021/12/06 08:47:36;;;;;;;4.25;2.20;;;9.60;77.90;;;;;;4970869;28;20018;-94
2021/12/06 08:50:05;;;;;;;5.15;2.10;;;9.60;77.90;;;;;;4963858;28;20125;-89
2021/12/06 08:52:31;;;;;;;6.32;2.90;;;9.60;77.90;;;;;;4966083;28;20049;-93
2021/12/06 08:54:56;;;;;;;6.25;2.20;;;9.60;77.90;;;;;;4976541;28;20034;-92
2021/12/06 08:57:22;;;;;;;6.78;2.20;;;9.60;78.50;;;;;;4967489;28;20018;-93
2021/12/06 08:59:48;;;;;;;9.73;1.83;;;9.60;78.00;;;;;;4983198;28;20041;-93
2021/12/06 09:02:15;;;;;;;10.40;2.13;;;9.60;77.90;;;;;;4987585;28;20482;-94
2021/12/06 09:04:41;;;;;;;5.13;2.13;;;9.60;78.00;;;;;;4963194;28;20050;-92
2021/12/06 09:07:12;;;;;;;5.03;2.20;;;9.60;78.00;;;;;;4993687;28;20092;-92
2021/12/06 09:09:49;;;;;;;8.30;2.03;;;9.60;78.00;;;;;;4965096;28;20037;-93
2021/12/06 09:12:24;;;;;;;4.72;1.27;;;9.60;78.00;;;;;;4980449;28;20029;-92
2021/12/06 09:14:51;;;;;;;;;;;9.60;78.00;;;;;;4955583;28;20049;-93
2021/12/06 09:17:18;;;;;;;6.18;1.25;;;9.80;78.00;;;;;;4995944;28;19917;-88
2021/12/06 09:19:44;;;;;;;7.47;1.30;;;9.60;77.80;;;;;;4977725;28;20038;-93
2021/12/06 09:22:11;;;;;;;6.05;1.50;;;9.60;77.80;;;;;;4981309;28;20038;-91
2021/12/06 09:24:37;;;;;;;3.90;1.50;;;10.20;78.30;;;;;;4968464;28;20045;-92
2021/12/06 09:27:04;;;;;;;3.08;1.55;;;9.60;78.00;;;;;;4981924;28;20044;-91
2021/12/06 09:29:32;;;;;;;5.93;1.40;;;9.50;78.00;;;;;;4961907;28;20041;-92
2021/12/06 09:31:59;;;;;;;7.93;1.50;;;9.60;78.10;;;;;;4999037;28;20065;-93
2021/12/06 09:34:27;;;;;;;4.88;1.83;;;9.80;78.20;;;;;;5008014;28;20040;-91
2021/12/06 09:36:54;;;;;;;6.13;1.40;;;9.60;78.10;;;;;;4966891;28;20452;-93
2021/12/06 09:39:20;;;;;;;2.45;1.33;;;9.60;78.10;;;;;;4984326;28;20041;-90
2021/12/06 09:41:46;;;;;;;7.00;1.65;;;9.60;78.10;;;;;;4971379;28;20109;-93
2021/12/06 09:44:13;;;;;;;5.03;1.38;;;9.60;78.20;;;;;;4969295;28;20113;-92
2021/12/06 09:46:40;;;;;;;5.55;1.38;;;9.60;78.20;;;;;;4994376;28;20022;-88
2021/12/06 09:49:14;;;;;;;4.10;1.40;;;9.60;78.20;;;;;;4968863;28;20099;-90
2021/12/06 09:51:44;;;;;;;3.13;1.25;;;9.70;78.30;;;;;;4990629;28;20060;-91
2021/12/06 09:54:11;;;;;;;6.03;1.55;;;9.70;78.30;;;;;;4991613;28;20906;-90
2021/12/06 09:56:43;;;;;;;6.72;1.45;;;9.60;78.30;;;;;;4989199;28;20087;-91
2021/12/06 09:59:15;;;;;;;4.72;1.58;;;9.60;78.40;;;;;;4977249;28;20105;-91
2021/12/06 10:01:51;;;;;;;8.02;1.63;;;9.70;78.40;;;;;;4989737;28;20124;-91
2021/12/06 10:04:19;;;;;;;9.30;1.88;;;9.80;78.50;;;;;;4992965;28;20034;-91
2021/12/06 10:06:46;;;;;;;3.47;1.65;;;9.70;78.40;;;;;;4990922;28;20544;-91
2021/12/06 10:09:13;;;;;;;9.32;1.38;;;9.70;78.40;;;;;;4990478;28;20021;-92
2021/12/06 10:11:40;;;;;;;8.75;1.65;;;9.80;78.50;;;;;;4991895;28;20404;-92
2021/12/06 10:14:06;;;;;;;6.20;2.08;;;9.70;78.50;;;;;;4977146;28;20033;-88
2021/12/06 10:16:33;;;;;;;5.20;1.60;;;9.70;78.50;;;;;;4955609;28;20486;-93
2021/12/06 10:18:59;;;;;;;4.65;1.42;;;10.10;78.70;;;;;;4986258;28;20117;-89
2021/12/06 10:21:27;;;;;;;8.95;1.85;;;9.70;78.50;;;;;;4998655;28;20121;-91
2021/12/06 10:23:55;;;;;;;9.27;2.33;;;9.90;79.10;;;;;;4969493;28;20043;-91
2021/12/06 10:26:26;;;;;;;7.97;1.90;;;9.80;78.50;;;;;;4987435;28;20579;-93
2021/12/06 10:28:58;;;;;;;5.88;1.60;;;9.80;78.50;;;;;;4978529;28;20597;-90
2021/12/06 10:31:26;;;;;;;13.35;2.20;;;9.80;78.50;;;;;;4994905;28;20033;-91
2021/12/06 10:33:54;;;;;;;6.13;1.63;;;9.80;78.60;;;;;;4991889;28;20263;-91
2021/12/06 10:36:20;;;;;;;5.95;1.80;;;9.80;78.60;;;;;;4992830;28;20048;-91
2021/12/06 10:38:53;;;;;;;10.32;2.25;;;9.80;78.60;;;;;;4988456;28;20026;-90
2021/12/06 10:41:29;;;;;;;11.50;1.90;;;9.80;79.10;;;;;;4974316;28;20468;-88
2021/12/06 10:44:09;;;;;;;6.50;2.10;;;9.80;78.60;;;;;;4981804;28;20022;-91
2021/12/06 10:46:35;;;;;;;4.38;1.90;;;9.80;78.60;;;;;;5004803;28;20041;-92
2021/12/06 10:49:06;;;;;;;7.13;1.52;;;9.80;78.60;;;;;;4989434;28;20026;-91
2021/12/06 10:51:32;;;;;;;8.55;1.73;;;9.80;78.70;;;;;;4993152;28;20423;-90
2021/12/06 10:54:16;;;;;;;6.30;1.52;;;9.90;78.80;;;;;;5000955;28;20613;-90
2021/12/06 10:56:46;;;;;;;2.95;1.30;;;9.90;78.80;;;;;;5014533;28;20039;-94
2021/12/06 10:59:19;;;;;;;3.88;1.27;;;10.10;78.90;;;;;;4995967;28;20025;-93
2021/12/06 11:01:47;;;;;;;8.02;2.97;;;9.90;78.80;;;;;;4975167;28;20068;-94
2021/12/06 11:04:17;;;;;;;9.35;1.70;;;9.90;78.80;;;;;;4980928;28;20040;-93
2021/12/06 11:06:47;;;;;;;3.65;1.25;;;9.90;78.70;;;;;;4977945;28;20041;-94
2021/12/06 11:09:22;;;;;;;8.27;1.70;;;10.20;78.90;;;;;;4986060;28;20022;-94
2021/12/06 11:11:55;;;;;;;6.22;1.17;;;9.90;78.80;;;;;;4975026;28;20033;-90
2021/12/06 11:14:30;;;;;;;7.00;1.00;;;9.90;78.60;;;;;;5001270;28;20037;-91
2021/12/06 11:17:03;;;;;;;4.50;1.15;;;9.90;79.20;;;;;;5010587;28;20045;-91
2021/12/06 11:19:31;;;;;;;3.17;1.08;;;9.90;78.70;;;;;;4991623;28;20133;-88
2021/12/06 11:22:12;;;;;;;7.97;1.80;;;9.90;78.70;;;;;;4994054;28;20095;-91
2021/12/06 11:24:45;;;;;;;6.85;1.58;;;9.90;78.80;;;;;;4988384;28;20029;-89
2021/12/06 11:27:24;;;;;;;6.70;1.52;;;10.00;78.90;;;;;;4982153;28;20057;-91
2021/12/06 11:30:06;;;;;;;7.07;1.52;;;10.00;78.80;;;;;;4977571;28;20034;-91
2021/12/06 11:32:46;;;;;;;7.28;1.52;;;10.00;78.90;;;;;;4974196;28;20026;-88
2021/12/06 11:35:22;;;;;;;3.92;1.33;;;10.00;78.90;;;;;;4993670;28;20029;-91
2021/12/06 11:37:52;;;;;;;6.05;1.08;;;10.00;79.00;;;;;;5022329;28;20383;-91
2021/12/06 11:40:23;;;;;;;3.90;1.83;;;10.00;79.00;;;;;;4986929;28;20126;-89
2021/12/06 11:43:02;;;;;;;2.72;0.90;;;10.00;79.00;;;;;;5007076;28;20029;-92
2021/12/06 11:45:48;;;;;;;2.53;1.10;;;10.00;79.00;;;;;;4988408;28;20033;-92
2021/12/06 11:48:33;;;;;;;6.20;1.70;;;10.00;79.00;;;;;;4997826;28;20032;-91
2021/12/06 11:51:08;;;;;;;3.40;0.95;;;10.00;78.90;;;;;;4975597;28;20053;-92
2021/12/06 11:53:38;;;;;;;5.95;1.98;;;10.00;78.90;;;;;;5008959;28;20098;-94
2021/12/06 11:56:30;;;;;;;5.18;2.22;;;10.00;78.90;;;;;;5005197;28;20038;-94
2021/12/06 11:59:05;;;;;;;9.02;1.63;;;10.10;79.00;;;;;;4990131;28;20059;-91
2021/12/06 12:01:38;;;;;;;5.85;1.90;;;10.10;78.90;;;;;;5003470;28;20049;-92
2021/12/06 12:04:11;;;;;;;1.25;0.70;;;10.10;78.90;;;;;;4983457;28;20036;-96
2021/12/06 12:06:40;;;;;;;7.43;1.35;;;10.10;79.50;;;;;;4976982;28;20126;-94
2021/12/06 12:09:24;;;;;;;9.13;1.50;;;10.40;79.10;;;;;;4962130;28;20025;-95
2021/12/06 12:12:02;;;;;;;9.13;1.40;;;10.10;78.90;;;;;;5011946;28;20041;-94
2021/12/06 12:14:36;;;;;;;5.57;1.20;;;10.10;78.90;;;;;;4999972;28;20032;-89
2021/12/06 12:17:12;;;;;;;7.15;1.58;;;10.10;78.80;;;;;;4980644;28;20034;-91
2021/12/06 12:19:39;;;;;;;3.28;1.40;;;10.10;78.80;;;;;;4987343;28;20149;-92
2021/12/06 12:22:07;;;;;;;9.75;1.70;;;10.10;78.90;;;;;;5007377;28;20025;-92
2021/12/06 12:24:34;;;;;;;8.32;2.00;;;10.10;78.90;;;;;;4969450;28;20092;-91
2021/12/06 12:27:06;;;;;;;12.10;1.88;;;10.10;79.00;;;;;;4985890;28;20029;-90
2021/12/06 12:29:32;;;;;;;4.93;1.80;;;10.10;79.00;;;;;;4986265;28;20080;-92
2021/12/06 12:32:03;;;;;;;9.73;2.30;;;10.40;79.20;;;;;;4977443;28;20517;-92
2021/12/06 12:34:35;;;;;;;7.75;2.38;;;10.50;79.10;;;;;;4965961;28;20084;-90
2021/12/06 12:37:02;;;;;;;6.55;2.17;;;10.50;79.10;;;;;;4979787;28;20150;-92
2021/12/06 12:39:28;;;;;;;5.57;2.00;;;10.30;79.00;;;;;;4983461;28;20030;-91
2021/12/06 12:42:00;;;;;;;9.52;2.03;;;10.10;78.90;;;;;;4987018;28;20047;-93
2021/12/06 12:44:49;;;;;;;3.05;1.38;;;10.20;78.90;;;;;;4980588;28;20402;-92
2021/12/06 12:47:23;;;;;;;4.05;1.23;;;10.20;78.90;;;;;;4980428;28;20038;-89
2021/12/06 12:49:57;;;;;;;4.28;1.75;;;10.10;79.40;;;;;;4986688;28;20025;-92
2021/12/06 12:52:51;;;;;;;4.47;1.25;;;10.40;78.90;;;;;;4979347;28;20449;-93
2021/12/06 12:55:41;;;;;;;13.45;2.28;;;10.10;78.70;;;;;;5004929;28;20037;-92
2021/12/06 12:58:13;;;;;;;3.45;1.27;;;10.10;78.60;;;;;;5001090;28;20029;-92
2021/12/06 13:00:57;;;;;;;2.65;1.20;;;10.20;79.20;;;;;;5008506;28;20050;-90
2021/12/06 13:03:35;;;;;;;4.88;1.23;;;10.10;78.50;;;;;;4973416;28;20549;-92
2021/12/06 13:06:24;;;;;;;7.95;1.80;;;10.10;78.50;;;;;;4998798;28;21143;-93
2021/12/06 13:09:15;;;;;;;2.72;1.15;;;10.10;78.50;;;;;;4981772;28;20030;-93
2021/12/06 13:11:48;;;;;;;8.80;1.00;;;10.10;78.30;;;;;;4994455;28;20033;-92
2021/12/06 13:14:42;;;;;;;3.75;0.93;;;10.10;78.30;;;;;;5008635;28;20803;-93
2021/12/06 13:17:14;;;;;;;4.68;1.48;;;10.10;78.30;;;;;;4964706;28;20143;-94
2021/12/06 13:22:16;;;;;;;5.63;1.67;;;10.10;78.30;;;;;;4982216;28;20092;-91
2021/12/06 13:24:48;;;;;;;7.10;2.33;;;10.10;78.20;;;;;;4979438;28;20037;-92